sensor_id;sensor_type;location;lat;lon;timestamp;pressure;altitude;pressure_sealevel;temperature;humidity
36062;BME280;22123;52.412;20.970;2024-02-16T00:00:41;101330.94;;;6.57;100.00
36062;BME280;22123;52.412;20.970;2024-02-16T00:03:07;101329.13;;;6.58;100.00
36062;BME280;22123;52.412;20.970;2024-02-16T00:05:33;101293.88;;;6.41;100.00
36062;BME280;22123;52.412;20.970;2024-02-16T00:07:58;101314.56;;;6.51;100.00
36062;BME280;22123;52.412;20.970;2024-02-16T00:10:24;101302.78;;;6.42;100.00
36062;BME280;22123;52.412;20.970;2024-02-16T00:12:50;101325.38;;;6.60;100.00
36062;BME280;22123;52.412;20.970;2024-02-16T00:15:16;101298.38;;;6.52;100.00
36062;BME280;22123;52.412;20.970;2024-02-16T00:17:42;101286.88;;;6.40;100.00
36062;BME280;22123;52.412;20.970;2024-02-16T00:20:08;101299.97;;;6.55;100.00
36062;BME280;22123;52.412;20.970;2024-02-16T00:22:34;101300.66;;;6.57;100.00
36062;BME280;22123;52.412;20.970;2024-02-16T00:25:00;101312.81;;;6.61;100.00
36062;BME280;22123;52.412;20.970;2024-02-16T00:27:26;101297.06;;;6.47;100.00
36062;BME280;22123;52.412;20.970;2024-02-16T00:29:52;101281.16;;;6.34;100.00
36062;BME280;22123;52.412;20.970;2024-02-16T00:32:17;101285.03;;;6.30;100.00
36062;BME280;22123;52.412;20.970;2024-02-16T00:34:43;101288.72;;;6.29;100.00
36062;BME280;22123;52.412;20.970;2024-02-16T00:37:09;101274.75;;;6.14;100.00
36062;BME280;22123;52.412;20.970;2024-02-16T00:39:36;101271.94;;;6.04;100.00
36062;BME280;22123;52.412;20.970;2024-02-16T00:42:02;101304.50;;;6.20;100.00
36062;BME280;22123;52.412;20.970;2024-02-16T00:44:28;101262.09;;;5.93;100.00
36062;BME280;22123;52.412;20.970;2024-02-16T00:46:54;101277.66;;;5.99;100.00
36062;BME280;22123;52.412;20.970;2024-02-16T00:49:20;101278.97;;;5.93;100.00
36062;BME280;22123;52.412;20.970;2024-02-16T00:51:46;101266.59;;;5.81;100.00
36062;BME280;22123;52.412;20.970;2024-02-16T00:54:12;101289.66;;;5.93;100.00
36062;BME280;22123;52.412;20.970;2024-02-16T00:56:38;101253.34;;;5.68;100.00
36062;BME280;22123;52.412;20.970;2024-02-16T00:59:04;101273.75;;;5.81;100.00
36062;BME280;22123;52.412;20.970;2024-02-16T01:01:30;101286.25;;;5.80;100.00
36062;BME280;22123;52.412;20.970;2024-02-16T01:03:56;101255.41;;;5.65;100.00
36062;BME280;22123;52.412;20.970;2024-02-16T01:06:22;101297.69;;;5.93;100.00
36062;BME280;22123;52.412;20.970;2024-02-16T01:08:48;101253.09;;;5.60;100.00
36062;BME280;22123;52.412;20.970;2024-02-16T01:11:13;101249.72;;;5.58;100.00
36062;BME280;22123;52.412;20.970;2024-02-16T01:13:40;101286.63;;;5.75;100.00
36062;BME280;22123;52.412;20.970;2024-02-16T01:16:06;101269.00;;;5.62;100.00
36062;BME280;22123;52.412;20.970;2024-02-16T01:18:34;101263.31;;;5.55;100.00
36062;BME280;22123;52.412;20.970;2024-02-16T01:21:00;101245.69;;;5.41;100.00
36062;BME280;22123;52.412;20.970;2024-02-16T01:23:26;101240.81;;;5.35;100.00
36062;BME280;22123;52.412;20.970;2024-02-16T01:25:52;101262.94;;;5.48;100.00
36062;BME280;22123;52.412;20.970;2024-02-16T01:28:17;101287.94;;;5.58;100.00
36062;BME280;22123;52.412;20.970;2024-02-16T01:30:43;101261.94;;;5.38;100.00
36062;BME280;22123;52.412;20.970;2024-02-16T01:33:09;101253.09;;;5.37;100.00
36062;BME280;22123;52.412;20.970;2024-02-16T01:35:35;101245.06;;;5.26;100.00
36062;BME280;22123;52.412;20.970;2024-02-16T01:38:01;101239.72;;;5.26;100.00
36062;BME280;22123;52.412;20.970;2024-02-16T01:40:28;101268.00;;;5.29;100.00
36062;BME280;22123;52.412;20.970;2024-02-16T01:42:54;101257.31;;;5.29;100.00
36062;BME280;22123;52.412;20.970;2024-02-16T01:45:20;101235.66;;;5.09;100.00
36062;BME280;22123;52.412;20.970;2024-02-16T01:47:47;101294.50;;;5.43;100.00
36062;BME280;22123;52.412;20.970;2024-02-16T01:50:18;101235.19;;;5.04;100.00
36062;BME280;22123;52.412;20.970;2024-02-16T01:52:45;101295.31;;;5.32;100.00
36062;BME280;22123;52.412;20.970;2024-02-16T01:55:12;101289.81;;;5.22;100.00
36062;BME280;22123;52.412;20.970;2024-02-16T01:57:38;101294.19;;;5.23;100.00
36062;BME280;22123;52.412;20.970;2024-02-16T02:00:05;101296.16;;;5.21;100.00
36062;BME280;22123;52.412;20.970;2024-02-16T02:02:31;101269.38;;;4.99;100.00
36062;BME280;22123;52.412;20.970;2024-02-16T02:04:57;101261.97;;;4.91;100.00
36062;BME280;22123;52.412;20.970;2024-02-16T02:07:25;101248.56;;;4.80;100.00
36062;BME280;22123;52.412;20.970;2024-02-16T02:09:51;101246.47;;;4.72;100.00
36062;BME280;22123;52.412;20.970;2024-02-16T02:12:17;101302.13;;;5.01;100.00
36062;BME280;22123;52.412;20.970;2024-02-16T02:14:43;101300.56;;;4.98;100.00
36062;BME280;22123;52.412;20.970;2024-02-16T02:17:09;101258.00;;;4.73;100.00
36062;BME280;22123;52.412;20.970;2024-02-16T02:19:35;101262.81;;;4.67;100.00
36062;BME280;22123;52.412;20.970;2024-02-16T02:22:01;101257.09;;;4.61;100.00
36062;BME280;22123;52.412;20.970;2024-02-16T02:24:27;101256.81;;;4.52;100.00
36062;BME280;22123;52.412;20.970;2024-02-16T02:26:52;101251.47;;;4.52;100.00
36062;BME280;22123;52.412;20.970;2024-02-16T02:29:18;101243.06;;;4.46;100.00
36062;BME280;22123;52.412;20.970;2024-02-16T02:31:44;101292.78;;;4.71;100.00
36062;BME280;22123;52.412;20.970;2024-02-16T02:34:10;101258.94;;;4.47;100.00
36062;BME280;22123;52.412;20.970;2024-02-16T02:36:36;101240.13;;;4.38;100.00
36062;BME280;22123;52.412;20.970;2024-02-16T02:39:03;101254.06;;;4.41;100.00
36062;BME280;22123;52.412;20.970;2024-02-16T02:41:29;101244.94;;;4.32;100.00
36062;BME280;22123;52.412;20.970;2024-02-16T02:43:55;101250.16;;;4.34;100.00
36062;BME280;22123;52.412;20.970;2024-02-16T02:46:22;101269.13;;;4.42;100.00
36062;BME280;22123;52.412;20.970;2024-02-16T02:48:48;101235.06;;;4.22;100.00
36062;BME280;22123;52.412;20.970;2024-02-16T02:51:14;101238.81;;;4.19;100.00
36062;BME280;22123;52.412;20.970;2024-02-16T02:53:40;101288.00;;;4.39;100.00
36062;BME280;22123;52.412;20.970;2024-02-16T02:56:06;101251.84;;;4.11;100.00
36062;BME280;22123;52.412;20.970;2024-02-16T02:58:32;101299.97;;;4.33;100.00
36062;BME280;22123;52.412;20.970;2024-02-16T03:00:58;101260.16;;;4.06;100.00
36062;BME280;22123;52.412;20.970;2024-02-16T03:03:24;101250.59;;;3.91;100.00
36062;BME280;22123;52.412;20.970;2024-02-16T03:05:49;101235.28;;;3.81;100.00
36062;BME280;22123;52.412;20.970;2024-02-16T03:08:15;101288.91;;;4.14;100.00
36062;BME280;22123;52.412;20.970;2024-02-16T03:10:41;101248.16;;;3.88;100.00
36062;BME280;22123;52.412;20.970;2024-02-16T03:13:07;101232.63;;;3.81;100.00
36062;BME280;22123;52.412;20.970;2024-02-16T03:15:33;101248.16;;;3.88;100.00
36062;BME280;22123;52.412;20.970;2024-02-16T03:17:59;101248.28;;;3.86;100.00
36062;BME280;22123;52.412;20.970;2024-02-16T03:20:25;101198.88;;;3.56;100.00
36062;BME280;22123;52.412;20.970;2024-02-16T03:22:51;101244.78;;;3.86;100.00
36062;BME280;22123;52.412;20.970;2024-02-16T03:25:17;101249.22;;;3.85;100.00
36062;BME280;22123;52.412;20.970;2024-02-16T03:27:43;101221.66;;;3.73;100.00
36062;BME280;22123;52.412;20.970;2024-02-16T03:30:08;101250.09;;;3.86;100.00
36062;BME280;22123;52.412;20.970;2024-02-16T03:32:34;101247.44;;;3.86;100.00
36062;BME280;22123;52.412;20.970;2024-02-16T03:35:00;101281.28;;;3.96;100.00
36062;BME280;22123;52.412;20.970;2024-02-16T03:37:26;101231.81;;;3.68;100.00
36062;BME280;22123;52.412;20.970;2024-02-16T03:39:52;101292.16;;;3.93;100.00
36062;BME280;22123;52.412;20.970;2024-02-16T03:42:18;101252.44;;;3.64;100.00
36062;BME280;22123;52.412;20.970;2024-02-16T03:44:44;101255.44;;;3.60;100.00
36062;BME280;22123;52.412;20.970;2024-02-16T03:47:10;101271.41;;;3.60;100.00
36062;BME280;22123;52.412;20.970;2024-02-16T03:49:36;101238.19;;;3.40;100.00
36062;BME280;22123;52.412;20.970;2024-02-16T03:52:02;101265.44;;;3.56;100.00
36062;BME280;22123;52.412;20.970;2024-02-16T03:54:27;101235.53;;;3.40;100.00
36062;BME280;22123;52.412;20.970;2024-02-16T03:56:54;101268.44;;;3.52;100.00
36062;BME280;22123;52.412;20.970;2024-02-16T03:59:20;101266.09;;;3.47;100.00
36062;BME280;22123;52.412;20.970;2024-02-16T04:01:46;101251.63;;;3.38;100.00
36062;BME280;22123;52.412;20.970;2024-02-16T04:04:12;101288.34;;;3.59;100.00
36062;BME280;22123;52.412;20.970;2024-02-16T04:06:38;101281.84;;;3.50;100.00
36062;BME280;22123;52.412;20.970;2024-02-16T04:09:04;101299.97;;;3.58;100.00
36062;BME280;22123;52.412;20.970;2024-02-16T04:11:30;101279.63;;;3.44;100.00
36062;BME280;22123;52.412;20.970;2024-02-16T04:13:56;101292.38;;;3.52;100.00
36062;BME280;22123;52.412;20.970;2024-02-16T04:16:22;101291.34;;;3.54;100.00
36062;BME280;22123;52.412;20.970;2024-02-16T04:18:47;101274.50;;;3.41;100.00
36062;BME280;22123;52.412;20.970;2024-02-16T04:21:13;101294.44;;;3.48;100.00
36062;BME280;22123;52.412;20.970;2024-02-16T04:23:39;101283.44;;;3.40;100.00
36062;BME280;22123;52.412;20.970;2024-02-16T04:26:05;101290.69;;;3.38;100.00
36062;BME280;22123;52.412;20.970;2024-02-16T04:28:31;101256.41;;;3.20;100.00
36062;BME280;22123;52.412;20.970;2024-02-16T04:30:57;101277.59;;;3.35;100.00
36062;BME280;22123;52.412;20.970;2024-02-16T04:33:23;101274.94;;;3.35;100.00
36062;BME280;22123;52.412;20.970;2024-02-16T04:35:48;101275.78;;;3.35;100.00
36062;BME280;22123;52.412;20.970;2024-02-16T04:38:14;101258.53;;;3.28;100.00
36062;BME280;22123;52.412;20.970;2024-02-16T04:40:40;101301.56;;;3.60;100.00
36062;BME280;22123;52.412;20.970;2024-02-16T04:43:06;101256.81;;;3.40;100.00
36062;BME280;22123;52.412;20.970;2024-02-16T04:45:32;101280.78;;;3.53;100.00
36062;BME280;22123;52.412;20.970;2024-02-16T04:48:05;101299.88;;;3.72;100.00
36062;BME280;22123;52.412;20.970;2024-02-16T04:50:34;101266.31;;;3.57;100.00
36062;BME280;22123;52.412;20.970;2024-02-16T04:53:01;101257.16;;;3.48;100.00
36062;BME280;22123;52.412;20.970;2024-02-16T04:55:27;101245.34;;;3.39;100.00
36062;BME280;22123;52.412;20.970;2024-02-16T04:57:53;101246.84;;;3.30;100.00
36062;BME280;22123;52.412;20.970;2024-02-16T05:00:19;101294.84;;;3.55;100.00
36062;BME280;22123;52.412;20.970;2024-02-16T05:02:46;101239.78;;;3.17;100.00
36062;BME280;22123;52.412;20.970;2024-02-16T05:05:11;101246.81;;;3.18;100.00
36062;BME280;22123;52.412;20.970;2024-02-16T05:07:37;101296.03;;;3.38;100.00
36062;BME280;22123;52.412;20.970;2024-02-16T05:10:07;101286.66;;;3.32;100.00
36062;BME280;22123;52.412;20.970;2024-02-16T05:12:33;101255.31;;;3.10;100.00
36062;BME280;22123;52.412;20.970;2024-02-16T05:14:59;101256.59;;;3.04;100.00
36062;BME280;22123;52.412;20.970;2024-02-16T05:17:26;101287.47;;;3.20;100.00
36062;BME280;22123;52.412;20.970;2024-02-16T05:19:52;101245.06;;;2.91;100.00
36062;BME280;22123;52.412;20.970;2024-02-16T05:22:18;101239.44;;;2.83;100.00
36062;BME280;22123;52.412;20.970;2024-02-16T05:24:44;101235.47;;;2.75;100.00
36062;BME280;22123;52.412;20.970;2024-02-16T05:27:10;101230.44;;;2.71;100.00
36062;BME280;22123;52.412;20.970;2024-02-16T05:29:36;101243.66;;;2.72;100.00
36062;BME280;22123;52.412;20.970;2024-02-16T05:32:02;101265.34;;;2.79;100.00
36062;BME280;22123;52.412;20.970;2024-02-16T05:34:28;101250.34;;;2.65;100.00
36062;BME280;22123;52.412;20.970;2024-02-16T05:36:54;101262.88;;;2.63;100.00
36062;BME280;22123;52.412;20.970;2024-02-16T05:39:19;101247.84;;;2.49;100.00
36062;BME280;22123;52.412;20.970;2024-02-16T05:41:48;101271.78;;;2.62;100.00
36062;BME280;22123;52.412;20.970;2024-02-16T05:44:14;101272.97;;;2.58;100.00
36062;BME280;22123;52.412;20.970;2024-02-16T05:46:40;101305.66;;;2.73;100.00
36062;BME280;22123;52.412;20.970;2024-02-16T05:49:06;101249.78;;;2.33;100.00
36062;BME280;22123;52.412;20.970;2024-02-16T05:51:35;101257.66;;;2.34;100.00
36062;BME280;22123;52.412;20.970;2024-02-16T05:54:01;101251.31;;;2.22;100.00
36062;BME280;22123;52.412;20.970;2024-02-16T05:56:27;101259.09;;;2.25;100.00
36062;BME280;22123;52.412;20.970;2024-02-16T05:58:53;101271.13;;;2.31;100.00
36062;BME280;22123;52.412;20.970;2024-02-16T06:01:18;101251.72;;;2.16;100.00
36062;BME280;22123;52.412;20.970;2024-02-16T06:03:44;101317.28;;;2.57;100.00
36062;BME280;22123;52.412;20.970;2024-02-16T06:06:10;101284.78;;;2.39;100.00
36062;BME280;22123;52.412;20.970;2024-02-16T06:08:36;101272.84;;;2.32;100.00
36062;BME280;22123;52.412;20.970;2024-02-16T06:11:02;101268.69;;;2.28;100.00
36062;BME280;22123;52.412;20.970;2024-02-16T06:13:28;101282.13;;;2.39;100.00
36062;BME280;22123;52.412;20.970;2024-02-16T06:15:54;101287.03;;;2.46;100.00
36062;BME280;22123;52.412;20.970;2024-02-16T06:18:20;101267.44;;;2.34;100.00
36062;BME280;22123;52.412;20.970;2024-02-16T06:20:45;101229.25;;;2.07;100.00
36062;BME280;22123;52.412;20.970;2024-02-16T06:23:11;101274.16;;;2.39;100.00
36062;BME280;22123;52.412;20.970;2024-02-16T06:25:37;101285.31;;;2.44;100.00
36062;BME280;22123;52.412;20.970;2024-02-16T06:28:03;101332.88;;;2.76;100.00
36062;BME280;22123;52.412;20.970;2024-02-16T06:30:29;101279.63;;;2.51;100.00
36062;BME280;22123;52.412;20.970;2024-02-16T06:32:55;101333.03;;;2.88;100.00
36062;BME280;22123;52.412;20.970;2024-02-16T06:35:21;101272.09;;;2.57;100.00
36062;BME280;22123;52.412;20.970;2024-02-16T06:37:47;101294.09;;;2.74;100.00
36062;BME280;22123;52.412;20.970;2024-02-16T06:40:13;101312.72;;;2.87;100.00
36062;BME280;22123;52.412;20.970;2024-02-16T06:42:39;101308.91;;;2.91;100.00
36062;BME280;22123;52.412;20.970;2024-02-16T06:45:05;101332.28;;;3.13;100.00
36062;BME280;22123;52.412;20.970;2024-02-16T06:47:31;101315.66;;;3.09;100.00
36062;BME280;22123;52.412;20.970;2024-02-16T06:49:57;101332.38;;;3.24;100.00
36062;BME280;22123;52.412;20.970;2024-02-16T06:52:23;101306.31;;;3.17;100.00
36062;BME280;22123;52.412;20.970;2024-02-16T06:54:49;101304.00;;;3.25;100.00
36062;BME280;22123;52.412;20.970;2024-02-16T06:57:15;101293.34;;;3.25;100.00
36062;BME280;22123;52.412;20.970;2024-02-16T06:59:41;101300.47;;;3.37;100.00
36062;BME280;22123;52.412;20.970;2024-02-16T07:02:07;101329.06;;;3.61;100.00
36062;BME280;22123;52.412;20.970;2024-02-16T07:04:33;101288.56;;;3.43;100.00
36062;BME280;22123;52.412;20.970;2024-02-16T07:06:59;101302.44;;;3.61;100.00
36062;BME280;22123;52.412;20.970;2024-02-16T07:09:25;101266.31;;;3.44;100.00
36062;BME280;22123;52.412;20.970;2024-02-16T07:11:51;101335.97;;;3.89;100.00
36062;BME280;22123;52.412;20.970;2024-02-16T07:14:17;101290.91;;;3.73;100.00
36062;BME280;22123;52.412;20.970;2024-02-16T07:16:43;101322.63;;;4.02;100.00
36062;BME280;22123;52.412;20.970;2024-02-16T07:19:08;101293.13;;;3.92;100.00
36062;BME280;22123;52.412;20.970;2024-02-16T07:21:34;101310.78;;;4.06;100.00
36062;BME280;22123;52.412;20.970;2024-02-16T07:24:00;101330.25;;;4.32;100.00
36062;BME280;22123;52.412;20.970;2024-02-16T07:26:26;101311.16;;;4.26;100.00
36062;BME280;22123;52.412;20.970;2024-02-16T07:28:52;101297.84;;;4.26;100.00
36062;BME280;22123;52.412;20.970;2024-02-16T07:31:18;101307.09;;;4.33;100.00
36062;BME280;22123;52.412;20.970;2024-02-16T07:33:44;101313.38;;;4.45;100.00
36062;BME280;22123;52.412;20.970;2024-02-16T07:36:10;101355.50;;;4.77;100.00
36062;BME280;22123;52.412;20.970;2024-02-16T07:38:36;101316.50;;;4.63;100.00
36062;BME280;22123;52.412;20.970;2024-02-16T07:41:02;101310.16;;;4.77;100.00
36062;BME280;22123;52.412;20.970;2024-02-16T07:43:27;101345.56;;;5.03;100.00
36062;BME280;22123;52.412;20.970;2024-02-16T07:45:53;101350.84;;;5.16;100.00
36062;BME280;22123;52.412;20.970;2024-02-16T07:48:20;101329.50;;;5.16;100.00
36062;BME280;22123;52.412;20.970;2024-02-16T07:50:46;101329.63;;;5.26;100.00
36062;BME280;22123;52.412;20.970;2024-02-16T07:53:12;101303.91;;;5.25;100.00
36062;BME280;22123;52.412;20.970;2024-02-16T07:55:38;101297.13;;;5.32;100.00
36062;BME280;22123;52.412;20.970;2024-02-16T07:58:04;101325.63;;;5.67;100.00
36062;BME280;22123;52.412;20.970;2024-02-16T08:00:30;101270.22;;;5.57;100.00
36062;BME280;22123;52.412;20.970;2024-02-16T08:02:56;101334.88;;;6.08;100.00
36062;BME280;22123;52.412;20.970;2024-02-16T08:05:22;101300.63;;;6.13;100.00
36062;BME280;22123;52.412;20.970;2024-02-16T08:07:48;101312.03;;;6.38;100.00
36062;BME280;22123;52.412;20.970;2024-02-16T08:10:14;101341.50;;;6.70;100.00
36062;BME280;22123;52.412;20.970;2024-02-16T08:12:39;101320.06;;;6.82;100.00
36062;BME280;22123;52.412;20.970;2024-02-16T08:15:06;101338.91;;;7.12;100.00
36062;BME280;22123;52.412;20.970;2024-02-16T08:17:35;101294.88;;;7.05;100.00
36062;BME280;22123;52.412;20.970;2024-02-16T08:20:01;101323.41;;;7.27;100.00
36062;BME280;22123;52.412;20.970;2024-02-16T08:22:27;101312.03;;;7.35;100.00
36062;BME280;22123;52.412;20.970;2024-02-16T08:24:53;101297.06;;;7.32;100.00
36062;BME280;22123;52.412;20.970;2024-02-16T08:27:20;101313.56;;;7.49;100.00
36062;BME280;22123;52.412;20.970;2024-02-16T08:29:46;101326.28;;;7.57;100.00
36062;BME280;22123;52.412;20.970;2024-02-16T08:32:11;101297.47;;;7.49;100.00
36062;BME280;22123;52.412;20.970;2024-02-16T08:34:37;101333.63;;;7.86;100.00
36062;BME280;22123;52.412;20.970;2024-02-16T08:37:04;101344.34;;;8.07;100.00
36062;BME280;22123;52.412;20.970;2024-02-16T08:39:31;101316.09;;;8.03;100.00
36062;BME280;22123;52.412;20.970;2024-02-16T08:41:57;101293.34;;;7.97;100.00
36062;BME280;22123;52.412;20.970;2024-02-16T08:44:23;101300.97;;;8.01;100.00
36062;BME280;22123;52.412;20.970;2024-02-16T08:46:49;101317.25;;;8.10;100.00
36062;BME280;22123;52.412;20.970;2024-02-16T08:49:15;101292.09;;;8.01;100.00
36062;BME280;22123;52.412;20.970;2024-02-16T08:51:42;101334.38;;;8.28;100.00
36062;BME280;22123;52.412;20.970;2024-02-16T08:54:08;101288.25;;;8.04;100.00
36062;BME280;22123;52.412;20.970;2024-02-16T08:56:34;101260.16;;;7.98;100.00
36062;BME280;22123;52.412;20.970;2024-02-16T08:59:00;101289.97;;;8.05;100.00
36062;BME280;22123;52.412;20.970;2024-02-16T09:01:36;101291.81;;;8.04;100.00
36062;BME280;22123;52.412;20.970;2024-02-16T09:04:02;101335.09;;;8.30;100.00
36062;BME280;22123;52.412;20.970;2024-02-16T09:06:28;101298.47;;;8.10;100.00
36062;BME280;22123;52.412;20.970;2024-02-16T09:08:55;101332.41;;;8.30;100.00
36062;BME280;22123;52.412;20.970;2024-02-16T09:11:22;101330.56;;;8.31;100.00
36062;BME280;22123;52.412;20.970;2024-02-16T09:13:48;101293.09;;;8.10;100.00
36062;BME280;22123;52.412;20.970;2024-02-16T09:16:14;101277.47;;;8.25;100.00
36062;BME280;22123;52.412;20.970;2024-02-16T09:18:40;101240.88;;;8.14;100.00
36062;BME280;22123;52.412;20.970;2024-02-16T09:21:06;101308.38;;;8.60;100.00
36062;BME280;22123;52.412;20.970;2024-02-16T09:23:32;101316.84;;;8.75;100.00
36062;BME280;22123;52.412;20.970;2024-02-16T09:25:58;101272.47;;;8.51;100.00
36062;BME280;22123;52.412;20.970;2024-02-16T09:28:25;101299.75;;;8.76;100.00
36062;BME280;22123;52.412;20.970;2024-02-16T09:30:52;101259.34;;;8.58;100.00
36062;BME280;22123;52.412;20.970;2024-02-16T09:33:18;101287.06;;;8.78;100.00
36062;BME280;22123;52.412;20.970;2024-02-16T09:35:44;101265.16;;;8.82;100.00
36062;BME280;22123;52.412;20.970;2024-02-16T09:38:10;101302.59;;;9.13;100.00
36062;BME280;22123;52.412;20.970;2024-02-16T09:40:36;101269.38;;;9.04;100.00
36062;BME280;22123;52.412;20.970;2024-02-16T09:43:02;101269.78;;;9.19;100.00
36062;BME280;22123;52.412;20.970;2024-02-16T09:45:29;101259.03;;;9.19;100.00
36062;BME280;22123;52.412;20.970;2024-02-16T09:47:57;101288.28;;;9.42;100.00
36062;BME280;22123;52.412;20.970;2024-02-16T09:50:24;101269.63;;;9.40;100.00
36062;BME280;22123;52.412;20.970;2024-02-16T09:52:50;101268.72;;;9.50;100.00
36062;BME280;22123;52.412;20.970;2024-02-16T09:55:17;101283.16;;;9.58;100.00
36062;BME280;22123;52.412;20.970;2024-02-16T09:57:43;101268.88;;;9.58;100.00
36062;BME280;22123;52.412;20.970;2024-02-16T10:00:10;101270.09;;;9.73;100.00
36062;BME280;22123;52.412;20.970;2024-02-16T10:02:44;101266.81;;;9.80;100.00
36062;BME280;22123;52.412;20.970;2024-02-16T10:05:17;101250.38;;;9.83;100.00
36062;BME280;22123;52.412;20.970;2024-02-16T10:07:45;101259.25;;;9.93;100.00
36062;BME280;22123;52.412;20.970;2024-02-16T10:10:27;101276.00;;;10.15;100.00
36062;BME280;22123;52.412;20.970;2024-02-16T10:13:06;101255.53;;;10.04;100.00
36062;BME280;22123;52.412;20.970;2024-02-16T10:15:32;101246.75;;;10.02;100.00
36062;BME280;22123;52.412;20.970;2024-02-16T10:18:01;101268.41;;;10.28;100.00
36062;BME280;22123;52.412;20.970;2024-02-16T10:20:27;101245.78;;;10.21;100.00
36062;BME280;22123;52.412;20.970;2024-02-16T10:23:06;101278.13;;;10.49;100.00
36062;BME280;22123;52.412;20.970;2024-02-16T10:25:33;101228.59;;;10.32;100.00
36062;BME280;22123;52.412;20.970;2024-02-16T10:28:04;101264.50;;;10.68;100.00
36062;BME280;22123;52.412;20.970;2024-02-16T10:30:30;101242.13;;;10.68;100.00
36062;BME280;22123;52.412;20.970;2024-02-16T10:32:57;101228.09;;;10.82;100.00
36062;BME280;22123;52.412;20.970;2024-02-16T10:35:24;101216.63;;;10.98;100.00
36062;BME280;22123;52.412;20.970;2024-02-16T10:37:51;101202.59;;;10.94;100.00
36062;BME280;22123;52.412;20.970;2024-02-16T10:40:19;101206.75;;;11.07;100.00
36062;BME280;22123;52.412;20.970;2024-02-16T10:42:45;101226.63;;;11.32;100.00
36062;BME280;22123;52.412;20.970;2024-02-16T10:45:12;101233.19;;;11.56;100.00
36062;BME280;22123;52.412;20.970;2024-02-16T10:47:38;101222.69;;;11.79;100.00
36062;BME280;22123;52.412;20.970;2024-02-16T10:50:04;101207.84;;;12.26;100.00
36062;BME280;22123;52.412;20.970;2024-02-16T10:52:31;101213.31;;;13.00;100.00
36062;BME280;22123;52.412;20.970;2024-02-16T10:54:59;101205.13;;;13.97;100.00
36062;BME280;22123;52.412;20.970;2024-02-16T10:57:25;101204.56;;;15.41;100.00
36062;BME280;22123;52.412;20.970;2024-02-16T10:59:52;101214.03;;;17.06;100.00
36062;BME280;22123;52.412;20.970;2024-02-16T11:02:18;101171.44;;;17.97;100.00
36062;BME280;22123;52.412;20.970;2024-02-16T11:04:46;101201.84;;;19.16;100.00
36062;BME280;22123;52.412;20.970;2024-02-16T11:07:15;101209.00;;;20.02;72.32
36062;BME280;22123;52.412;20.970;2024-02-16T11:09:43;101197.22;;;20.79;61.55
36062;BME280;22123;52.412;20.970;2024-02-16T11:12:14;101183.13;;;21.44;56.05
36062;BME280;22123;52.412;20.970;2024-02-16T11:14:42;101168.72;;;21.74;50.64
36062;BME280;22123;52.412;20.970;2024-02-16T11:17:09;101174.53;;;22.27;51.63
36062;BME280;22123;52.412;20.970;2024-02-16T11:19:35;101160.38;;;22.84;48.86
36062;BME280;22123;52.412;20.970;2024-02-16T11:22:06;101178.47;;;23.15;46.58
36062;BME280;22123;52.412;20.970;2024-02-16T11:24:36;101162.19;;;23.37;45.84
36062;BME280;22123;52.412;20.970;2024-02-16T11:27:05;101156.09;;;22.88;46.13
36062;BME280;22123;52.412;20.970;2024-02-16T11:29:33;101165.63;;;22.73;46.41
36062;BME280;22123;52.412;20.970;2024-02-16T11:32:00;101164.56;;;22.74;46.96
36062;BME280;22123;52.412;20.970;2024-02-16T11:34:26;101134.94;;;22.65;46.28
36062;BME280;22123;52.412;20.970;2024-02-16T11:36:56;101155.59;;;22.55;46.78
36062;BME280;22123;52.412;20.970;2024-02-16T11:39:22;101159.53;;;22.29;46.93
36062;BME280;22123;52.412;20.970;2024-02-16T11:42:02;101162.84;;;22.19;46.87
36062;BME280;22123;52.412;20.970;2024-02-16T11:44:32;101160.53;;;22.04;47.22
36062;BME280;22123;52.412;20.970;2024-02-16T11:46:59;101130.41;;;21.67;47.02
36062;BME280;22123;52.412;20.970;2024-02-16T11:49:25;101141.22;;;21.81;49.38
36062;BME280;22123;52.412;20.970;2024-02-16T11:51:51;101134.69;;;22.12;48.66
36062;BME280;22123;52.412;20.970;2024-02-16T11:54:17;101125.16;;;22.15;46.60
36062;BME280;22123;52.412;20.970;2024-02-16T11:56:44;101099.34;;;22.04;47.41
36062;BME280;22123;52.412;20.970;2024-02-16T11:59:15;101103.31;;;21.78;47.63
36062;BME280;22123;52.412;20.970;2024-02-16T12:02:16;101131.91;;;21.08;48.43
36062;BME280;22123;52.412;20.970;2024-02-16T12:04:42;101121.47;;;20.98;49.12
36062;BME280;22123;52.412;20.970;2024-02-16T12:07:08;101134.03;;;21.24;49.53
36062;BME280;22123;52.412;20.970;2024-02-16T12:09:34;101115.59;;;20.76;49.95
36062;BME280;22123;52.412;20.970;2024-02-16T12:11:59;101110.19;;;20.62;51.27
36062;BME280;22123;52.412;20.970;2024-02-16T12:14:25;101127.09;;;20.53;49.91
36062;BME280;22123;52.412;20.970;2024-02-16T12:16:56;101112.03;;;20.11;51.61
36062;BME280;22123;52.412;20.970;2024-02-16T12:19:22;101114.28;;;20.21;50.84
36062;BME280;22123;52.412;20.970;2024-02-16T12:21:51;101125.31;;;20.08;50.64
36062;BME280;22123;52.412;20.970;2024-02-16T12:24:18;101122.81;;;20.00;51.48
36062;BME280;22123;52.412;20.970;2024-02-16T12:26:44;101074.47;;;19.55;54.21
36062;BME280;22123;52.412;20.970;2024-02-16T12:29:11;101089.16;;;19.60;54.19
36062;BME280;22123;52.412;20.970;2024-02-16T12:31:37;101091.22;;;19.72;55.92
36062;BME280;22123;52.412;20.970;2024-02-16T12:34:04;101075.34;;;19.55;54.39
36062;BME280;22123;52.412;20.970;2024-02-16T12:36:30;101048.00;;;19.03;53.61